Flight Track Log - Related Links

Times and Time Zones

All times are in EDT time to prevent confusion due to time zone crossing. See the DAL1205 flight status page for this flight to view local times or setup timezone preferences in your user account.

Time Position Orientation Groundspeed Altitude Reporting Facility
EDT Latitude Longitude Course Direction KTS MPH feet Rate Location/Type
Mon 07:15:51 PM 33.6497 -84.3508 342° North 451 519 3,200  Level Atlanta Center
Mon 07:16:51 PM 33.6667 -84.2708 76° East 352 405 5,600 2,700 Climbing Atlanta Center
Mon 07:17:51 PM 33.7044 -84.1911 60° Northeast 298 343 8,600 2,336 Climbing Atlanta Center
Mon 07:18:44 PM 33.7833 -84.1833 North 291 335 10,000 533 Climbing Atlanta TRACON
Mon 07:20:51 PM 33.9442 -84.2917 331° Northwest 360 414 10,200 963 Climbing Atlanta Center
Mon 07:21:00 PM 34.0975 -84.6522 342° North  Level FlightAware Approximate
Mon 07:21:51 PM 34.0025 -84.3997 303° West 369 425 13,000  Level Atlanta Center
Mon 07:22:51 PM 34.0647 -84.4978 307° West 375 432 15,400 2,500 Climbing Atlanta Center
Mon 07:23:51 PM 34.1542 -84.5911 319° Northwest 404 465 18,000 2,450 Climbing Atlanta Center
Mon 07:24:51 PM 34.2372 -84.6897 316° Northwest 410 472 20,300 2,000 Climbing Atlanta Center
Mon 07:25:51 PM 34.3431 -84.7783 325° Northwest 419 482 22,000 2,050 Climbing Atlanta Center
Mon 07:26:51 PM 34.4489 -84.8550 329° Northwest 435 501 24,400 2,000 Climbing Atlanta Center
Mon 07:27:51 PM 34.5486 -84.9317 328° Northwest 435 501 26,000 800 Climbing Atlanta Center
Mon 07:28:51 PM 34.6483 -85.0083 328° Northwest 435 501 26,000  Level Atlanta Center
Mon 07:29:51 PM 34.7436 -85.0853 326° Northwest 428 493 26,000  Level Atlanta Center
Mon 07:30:51 PM 34.8431 -85.1625 327° Northwest 423 487 26,000  Level Atlanta Center
Mon 07:31:51 PM 34.9425 -85.2372 328° Northwest 423 487 26,000  Level Atlanta Center
Mon 07:32:51 PM 35.0419 -85.3147 327° Northwest 423 487 26,000 -792 Level Atlanta Center
Mon 07:34:30 PM 35.1875 -85.4461 324° Northwest 409 471 23,900 -1,094 Descending Memphis Center
Mon 07:35:30 PM 35.2600 -85.5383 314° West 387 445 23,100 -750 Descending Memphis Center
Mon 07:36:30 PM 35.3325 -85.6333 313° West 381 438 22,400 -700 Descending Memphis Center
Mon 07:37:30 PM 35.4047 -85.7236 314° West 381 438 21,700 -950 Descending Memphis Center
Mon 07:38:30 PM 35.4747 -85.8139 314° West 376 433 20,500 -1,200 Descending Memphis Center
Mon 07:39:30 PM 35.5447 -85.9019 314° West 376 433 19,300 -1,600 Descending Memphis Center
Mon 07:40:30 PM 35.6125 -85.9928 313° West 370 426 17,300 -2,000 Descending Memphis Center
Mon 07:41:30 PM 35.6783 -86.0814 312° West 360 414 15,300 -2,100 Descending Memphis Center
Mon 07:42:30 PM 35.7436 -86.1650 314° West 354 407 13,100 -2,150 Descending Memphis Center
Mon 07:43:30 PM 35.8047 -86.2489 312° West 342 394 11,000 -1,500 Descending Memphis Center
Mon 07:44:30 PM 35.8658 -86.3303 313° West 329 379 10,100 -1,100 Descending Memphis Center
Mon 07:45:30 PM 35.9183 -86.4022 312° West 300 345 8,800 -1,300 Descending Memphis Center
Mon 07:46:30 PM 35.9661 -86.4639 314° West 289 333 7,500 -1,100 Descending Memphis Center
Mon 07:47:30 PM 36.0183 -86.5333 313° West 277 319 6,600 -900 Descending Memphis Center
Mon 07:48:30 PM 36.0781 -86.5819 327° Northwest 269 310 5,700 -900 Descending Memphis Center
Mon 07:49:30 PM 36.1439 -86.5506 21° North 231 266 4,800 -1,250 Descending Memphis Center
Mon 07:50:30 PM 36.1964 -86.5661 347° North 203 234 3,200 -1,400 Descending Memphis Center
Mon 07:51:30 PM 36.2025 -86.6300 277° West 159 183 2,000 -950 Descending Memphis Center
Mon 07:52:30 PM 36.1744 -86.6622 223° Southwest 127 146 1,300 -650 Descending Memphis Center
Mon 07:53:30 PM 36.1372 -86.6794 200° South 122 140 700 -600 Descending Memphis Center
Mon 07:55:00 PM 36.1245 -86.6782 213° Southwest  Level Estimated

Login

Don't have an account? Register now (free) for customized features, flight alerts, and more!